Time;durP1;ratioP1;P1;durP2;ratioP2;P2;SDS_P1;SDS_P2;PMS_P1;PMS_P2;Temp;Humidity;BMP_temperature;BMP_pressure;BME280_temperature;BME280_humidity;BME280_pressure;Samples;Min_cycle;Max_cycle;Signal;HPM_P1;HPM_P2
2023/01/26 00:01:37;;;;;;;13.05;8.35;;;-0.60;99.90;;;;;;494002;241;27544;-73
2023/01/26 00:03:38;;;;;;;13.07;8.23;;;-0.60;99.90;;;;;;493994;241;27585;-73
2023/01/26 00:05:40;;;;;;;16.02;8.93;;;-0.60;99.90;;;;;;494011;241;27485;-74
2023/01/26 00:07:44;;;;;;;12.13;7.70;;;-0.60;99.90;;;;;;494036;241;27470;-73
2023/01/26 00:09:42;;;;;;;13.50;8.35;;;-0.70;99.90;;;;;;493823;241;27585;-73
2023/01/26 00:11:43;;;;;;;12.93;8.00;;;-0.70;99.90;;;;;;494029;241;27983;-73
2023/01/26 00:13:45;;;;;;;16.92;9.60;;;-0.60;99.90;;;;;;494003;241;29228;-73
2023/01/26 00:15:46;;;;;;;15.20;9.35;;;-0.60;99.90;;;;;;494030;241;27509;-73
2023/01/26 00:17:50;;;;;;;12.60;7.95;;;-0.70;99.90;;;;;;494027;241;27477;-73
2023/01/26 00:19:48;;;;;;;14.38;9.10;;;-0.70;99.90;;;;;;493784;241;27586;-73
2023/01/26 00:21:50;;;;;;;14.57;8.18;;;-0.70;99.90;;;;;;494006;241;27458;-73
2023/01/26 00:23:51;;;;;;;13.93;8.95;;;-0.60;99.90;;;;;;494009;241;27501;-74
2023/01/26 00:25:52;;;;;;;13.20;8.43;;;-0.70;99.90;;;;;;493973;241;27599;-73
2023/01/26 00:27:53;;;;;;;14.75;8.82;;;-0.60;99.90;;;;;;493990;241;27948;-74
2023/01/26 00:29:55;;;;;;;15.52;8.77;;;-0.60;99.90;;;;;;493996;241;28107;-73
2023/01/26 00:31:56;;;;;;;12.32;7.55;;;-0.60;99.90;;;;;;493976;241;27466;-73
2023/01/26 00:33:57;;;;;;;13.35;8.45;;;-0.60;99.90;;;;;;493986;241;27505;-73
2023/01/26 00:35:59;;;;;;;12.43;8.25;;;-0.60;99.90;;;;;;494035;237;27509;-73
2023/01/26 00:38:00;;;;;;;13.52;7.93;;;-0.50;99.90;;;;;;494017;241;27575;-73
2023/01/26 00:40:01;;;;;;;13.10;8.65;;;-0.50;99.90;;;;;;493979;241;27531;-73
2023/01/26 00:42:05;;;;;;;12.18;7.18;;;-0.50;99.90;;;;;;493999;241;27915;-73
2023/01/26 00:44:07;;;;;;;13.32;8.18;;;-0.50;99.90;;;;;;493985;241;27988;-73
2023/01/26 00:46:08;;;;;;;11.00;7.40;;;-0.50;99.90;;;;;;493996;241;27534;-73
2023/01/26 00:48:09;;;;;;;9.90;6.60;;;-0.50;99.90;;;;;;493993;241;27977;-73
2023/01/26 00:50:10;;;;;;;13.75;7.97;;;-0.50;99.90;;;;;;494017;241;27898;-74
2023/01/26 00:52:12;;;;;;;13.70;8.60;;;-0.60;99.90;;;;;;493994;241;27992;-73
2023/01/26 00:54:13;;;;;;;12.13;7.78;;;-0.60;99.90;;;;;;494021;241;27613;-73
2023/01/26 00:56:14;;;;;;;10.38;6.93;;;-0.60;99.90;;;;;;493991;241;27513;-73
2023/01/26 00:58:15;;;;;;;12.75;7.40;;;-0.60;99.90;;;;;;494008;241;27510;-73
2023/01/26 01:00:18;;;;;;;9.77;6.15;;;-0.60;99.90;;;;;;494008;241;27488;-73
2023/01/26 01:02:18;;;;;;;12.18;7.12;;;-0.70;99.90;;;;;;493922;241;27511;-74
2023/01/26 01:04:19;;;;;;;12.52;8.10;;;-0.70;99.90;;;;;;494017;241;27510;-73
2023/01/26 01:06:20;;;;;;;11.98;6.78;;;-0.60;99.90;;;;;;494059;241;27894;-74
2023/01/26 01:08:22;;;;;;;11.50;7.18;;;-0.60;99.90;;;;;;494030;241;28084;-73
2023/01/26 01:10:23;;;;;;;10.52;6.97;;;-0.70;99.90;;;;;;494015;241;27557;-73
2023/01/26 01:12:24;;;;;;;10.50;6.80;;;-0.70;99.90;;;;;;494030;241;27518;-74
2023/01/26 01:14:26;;;;;;;13.25;7.35;;;-0.70;99.90;;;;;;493993;241;27526;-73
2023/01/26 01:16:27;;;;;;;13.90;7.50;;;-0.80;99.90;;;;;;494035;241;27481;-73
2023/01/26 01:18:28;;;;;;;11.52;6.85;;;-0.80;99.90;;;;;;494012;241;27533;-74
2023/01/26 01:20:29;;;;;;;12.88;7.57;;;-0.80;99.90;;;;;;493999;237;27953;-73
2023/01/26 01:22:31;;;;;;;15.27;7.80;;;-1.00;99.90;;;;;;494014;241;27943;-73
2023/01/26 01:24:34;;;;;;;13.32;7.00;;;-0.90;99.90;;;;;;493997;241;27505;-73
2023/01/26 01:26:33;;;;;;;12.10;7.00;;;-0.90;99.90;;;;;;493912;241;27492;-73
2023/01/26 01:28:34;;;;;;;12.48;7.72;;;-1.10;99.90;;;;;;494041;241;27530;-73
2023/01/26 01:30:36;;;;;;;14.75;7.22;;;-1.10;99.90;;;;;;494002;241;27588;-73
2023/01/26 01:32:38;;;;;;;15.65;8.15;;;-1.00;99.90;;;;;;494009;241;27505;-74
2023/01/26 01:34:38;;;;;;;8.35;6.12;;;-0.90;99.90;;;;;;493824;241;27975;-73
2023/01/26 01:36:39;;;;;;;12.80;7.37;;;-0.90;99.90;;;;;;494032;241;27917;-73
2023/01/26 01:38:41;;;;;;;11.35;6.93;;;-1.00;99.90;;;;;;494017;241;27620;-73
2023/01/26 01:40:42;;;;;;;10.70;6.78;;;-1.00;99.90;;;;;;494004;239;27483;-73
2023/01/26 01:42:43;;;;;;;10.82;6.53;;;-0.90;99.90;;;;;;494042;241;27473;-73
2023/01/26 01:44:44;;;;;;;12.85;7.75;;;-0.90;99.90;;;;;;494033;241;27525;-73
2023/01/26 01:46:46;;;;;;;11.68;6.93;;;-0.90;99.90;;;;;;494060;241;27574;-73
2023/01/26 01:48:47;;;;;;;11.40;7.40;;;-0.80;99.90;;;;;;494044;241;27504;-73
2023/01/26 01:50:48;;;;;;;10.50;6.87;;;-0.80;99.90;;;;;;494050;241;28676;-73
2023/01/26 01:52:49;;;;;;;13.55;8.20;;;-0.80;99.90;;;;;;494045;241;28993;-73
2023/01/26 01:54:51;;;;;;;11.98;7.12;;;-0.70;99.90;;;;;;494051;241;27490;-74
2023/01/26 01:56:52;;;;;;;12.20;7.35;;;-0.80;99.90;;;;;;494037;241;27477;-73
2023/01/26 01:58:53;;;;;;;13.73;7.82;;;-0.70;99.90;;;;;;494032;241;27508;-73
2023/01/26 02:00:54;;;;;;;14.85;8.45;;;-0.70;99.90;;;;;;493985;241;27605;-73
2023/01/26 02:03:15;;;;;;;13.35;8.52;;;-0.80;99.90;;;;;;493887;241;27477;-73
2023/01/26 02:05:12;;;;;;;14.68;8.35;;;-0.90;99.90;;;;;;493644;241;27461;-73
2023/01/26 02:07:14;;;;;;;22.35;7.28;;;-0.90;99.90;;;;;;494045;241;27580;-73
2023/01/26 02:10:17;;;;;;;13.98;8.35;;;-0.90;99.90;;;;;;494017;241;27879;-73
2023/01/26 02:11:16;;;;;;;11.43;7.70;;;-0.90;99.90;;;;;;492247;241;27458;-74
2023/01/26 02:13:17;;;;;;;12.73;8.00;;;-1.10;99.90;;;;;;494027;241;27509;-74
2023/01/26 02:15:19;;;;;;;15.02;9.25;;;-1.00;99.90;;;;;;494005;241;27980;-74
2023/01/26 02:17:20;;;;;;;13.07;8.20;;;-1.00;99.90;;;;;;494015;241;28033;-73
2023/01/26 02:19:21;;;;;;;17.60;9.32;;;-1.00;99.90;;;;;;494033;241;27512;-74
2023/01/26 02:21:22;;;;;;;17.10;9.13;;;-1.00;99.90;;;;;;494019;241;27489;-73
2023/01/26 02:23:25;;;;;;;15.30;8.93;;;-1.00;99.90;;;;;;494012;241;27508;-73
2023/01/26 02:25:25;;;;;;;17.48;8.98;;;-1.00;99.90;;;;;;493922;241;27518;-73
2023/01/26 02:27:26;;;;;;;18.20;10.27;;;-0.90;99.90;;;;;;494021;241;27620;-73
2023/01/26 02:29:27;;;;;;;16.37;9.23;;;-0.90;99.90;;;;;;494016;241;27515;-73
2023/01/26 02:31:29;;;;;;;20.55;10.25;;;-0.90;99.90;;;;;;493995;241;27922;-73
2023/01/26 02:33:30;;;;;;;21.23;9.55;;;-0.90;99.90;;;;;;494003;241;28058;-73
2023/01/26 02:35:31;;;;;;;16.42;9.10;;;-0.90;99.90;;;;;;494018;241;27438;-73
2023/01/26 02:37:32;;;;;;;17.58;9.27;;;-0.90;99.90;;;;;;493989;241;27493;-73
2023/01/26 02:39:34;;;;;;;16.40;8.90;;;-0.90;99.90;;;;;;494059;241;27520;-73
2023/01/26 02:43:54;;;;;;;18.52;9.60;;;-0.80;99.90;;;;;;494003;241;27516;-73
2023/01/26 02:45:56;;;;;;;23.50;11.52;;;-0.80;99.90;;;;;;493999;241;27588;-73
2023/01/26 02:47:58;;;;;;;19.65;9.68;;;-0.80;99.90;;;;;;494000;241;28048;-73
2023/01/26 02:49:59;;;;;;;24.87;11.40;;;-0.80;99.90;;;;;;493847;241;29054;-74
2023/01/26 02:51:59;;;;;;;19.48;10.38;;;-0.80;99.90;;;;;;493949;241;27463;-73
2023/01/26 02:54:01;;;;;;;87.62;15.35;;;-0.90;99.90;;;;;;494021;241;27481;-75
2023/01/26 02:56:02;;;;;;;94.37;16.73;;;-0.90;99.90;;;;;;494029;241;27565;-73
2023/01/26 02:58:03;;;;;;;82.30;15.38;;;-1.00;99.90;;;;;;494024;241;27482;-73
2023/01/26 03:00:05;;;;;;;94.30;14.77;;;-1.00;99.90;;;;;;493973;237;27505;-73
2023/01/26 03:02:06;;;;;;;76.12;14.57;;;-1.10;99.90;;;;;;493994;241;28842;-73
2023/01/26 03:04:07;;;;;;;114.78;15.23;;;-1.10;99.90;;;;;;493997;241;27466;-74
2023/01/26 03:06:09;;;;;;;66.53;13.95;;;-1.10;99.90;;;;;;494007;241;27509;-74
2023/01/26 03:08:10;;;;;;;48.22;12.23;;;-1.10;99.90;;;;;;493989;241;27541;-73
2023/01/26 03:10:11;;;;;;;33.78;12.20;;;-1.20;99.90;;;;;;493940;241;27508;-73
2023/01/26 03:12:12;;;;;;;119.87;14.25;;;-1.10;99.90;;;;;;494010;241;27465;-74
2023/01/26 03:14:13;;;;;;;68.00;14.30;;;-1.20;99.90;;;;;;493967;241;29059;-73
2023/01/26 03:16:17;;;;;;;27.20;10.20;;;-1.20;99.90;;;;;;494025;241;27495;-73
2023/01/26 03:27:33;;;;;;;23.15;10.50;;;-1.30;99.90;;;;;;494024;241;27515;-73
2023/01/26 03:29:35;;;;;;;50.70;13.93;;;-1.20;99.90;;;;;;493963;241;27585;-73
2023/01/26 03:31:36;;;;;;;80.57;15.35;;;-1.20;99.90;;;;;;493994;241;27518;-73
2023/01/26 03:33:37;;;;;;;37.65;11.12;;;-1.60;99.90;;;;;;494012;241;27901;-73
2023/01/26 03:35:38;;;;;;;26.52;11.35;;;-1.50;99.90;;;;;;493985;241;29101;-73
2023/01/26 03:37:42;;;;;;;41.28;12.40;;;-1.40;99.90;;;;;;494003;241;27609;-74
2023/01/26 03:56:18;;;;;;;18.02;9.52;;;-1.20;99.90;;;;;;494035;241;27484;-73
2023/01/26 03:58:18;;;;;;;34.50;12.25;;;-1.20;99.90;;;;;;493975;241;27519;-73
2023/01/26 04:00:20;;;;;;;25.40;11.38;;;-1.50;99.90;;;;;;493998;241;28986;-73
2023/01/26 04:09:20;;;;;;;20.83;9.35;;;-1.50;99.90;;;;;;494019;241;28060;-73
2023/01/26 04:11:21;;;;;;;14.73;8.60;;;-1.60;99.90;;;;;;494016;241;29109;-73
2023/01/26 04:22:44;;;;;;;11.75;7.37;;;-1.50;99.90;;;;;;494013;237;27508;-73
2023/01/26 04:24:45;;;;;;;13.48;6.82;;;-1.60;99.90;;;;;;494001;241;27899;-73
2023/01/26 04:26:46;;;;;;;11.20;7.20;;;-1.70;99.90;;;;;;494008;241;27961;-73
2023/01/26 04:28:48;;;;;;;12.52;7.22;;;-1.70;99.90;;;;;;493989;241;28010;-73
2023/01/26 04:30:50;;;;;;;8.48;6.20;;;-1.60;99.90;;;;;;493992;241;27505;-73
2023/01/26 04:32:51;;;;;;;11.70;6.30;;;-1.50;99.90;;;;;;493941;241;27484;-74
2023/01/26 04:34:51;;;;;;;7.40;5.20;;;-1.50;99.90;;;;;;493961;241;27591;-73
2023/01/26 04:36:53;;;;;;;8.00;5.72;;;-1.40;99.90;;;;;;494009;241;27611;-73
2023/01/26 04:38:54;;;;;;;5.55;4.15;;;-1.60;99.90;;;;;;494040;239;27473;-73
2023/01/26 04:40:55;;;;;;;6.28;4.03;;;-1.50;99.90;;;;;;494028;241;27563;-73
2023/01/26 04:42:56;;;;;;;6.68;5.15;;;-1.40;99.90;;;;;;494011;241;27506;-74
2023/01/26 04:44:58;;;;;;;5.65;4.72;;;-1.40;99.90;;;;;;494006;241;27963;-73
2023/01/26 04:46:59;;;;;;;6.80;4.40;;;-1.30;99.90;;;;;;494038;241;28000;-73
2023/01/26 04:49:00;;;;;;;4.93;4.03;;;-1.20;99.90;;;;;;494020;241;29172;-73
2023/01/26 04:51:01;;;;;;;5.00;4.22;;;-1.10;99.90;;;;;;494028;241;27501;-73
2023/01/26 04:53:04;;;;;;;6.22;4.70;;;-1.10;99.90;;;;;;494036;241;27468;-73
2023/01/26 04:55:04;;;;;;;7.20;4.57;;;-1.10;99.90;;;;;;493953;241;27499;-73
2023/01/26 04:57:05;;;;;;;5.85;4.55;;;-1.10;99.90;;;;;;494048;237;27604;-73
2023/01/26 04:59:07;;;;;;;5.53;4.07;;;-1.00;99.90;;;;;;494022;241;27518;-73
2023/01/26 05:01:08;;;;;;;5.75;4.25;;;-1.10;99.90;;;;;;494037;241;27529;-73
2023/01/26 05:03:09;;;;;;;5.50;4.30;;;-1.00;99.90;;;;;;494036;241;27545;-73
2023/01/26 05:05:10;;;;;;;4.28;3.67;;;-1.00;99.90;;;;;;494001;241;28024;-73
2023/01/26 05:07:12;;;;;;;4.25;3.80;;;-1.10;99.90;;;;;;494039;241;29169;-73
2023/01/26 05:09:13;;;;;;;4.35;3.95;;;-1.10;99.90;;;;;;494032;241;29107;-73
2023/01/26 05:11:14;;;;;;;5.87;3.67;;;-1.00;99.90;;;;;;494037;241;27496;-74
2023/01/26 05:13:15;;;;;;;6.72;4.03;;;-1.00;99.90;;;;;;494015;241;27554;-73
2023/01/26 05:15:17;;;;;;;5.37;4.50;;;-0.90;99.90;;;;;;494006;241;27581;-74
2023/01/26 05:17:18;;;;;;;5.95;4.32;;;-0.90;99.90;;;;;;494025;241;27557;-73
2023/01/26 05:19:19;;;;;;;4.68;4.20;;;-0.90;99.90;;;;;;494013;241;27476;-73
2023/01/26 05:21:23;;;;;;;6.87;5.15;;;-0.90;99.90;;;;;;493974;241;27522;-73
2023/01/26 05:23:22;;;;;;;4.82;4.03;;;-0.90;99.90;;;;;;493772;241;27453;-73
2023/01/26 05:25:23;;;;;;;7.60;5.22;;;-0.90;99.90;;;;;;493941;241;28024;-73
2023/01/26 05:27:24;;;;;;;5.37;4.60;;;-1.00;99.90;;;;;;494016;241;29107;-73
2023/01/26 05:29:25;;;;;;;5.80;4.80;;;-0.90;99.90;;;;;;493979;241;29021;-73
2023/01/26 05:31:27;;;;;;;6.95;4.60;;;-0.90;99.90;;;;;;494004;241;27515;-73
2023/01/26 05:33:28;;;;;;;4.87;4.00;;;-0.90;99.90;;;;;;493991;241;27549;-73
2023/01/26 05:35:29;;;;;;;5.82;5.05;;;-0.90;99.90;;;;;;493951;241;27494;-73
2023/01/26 05:37:30;;;;;;;6.30;4.75;;;-0.90;99.90;;;;;;494002;241;27623;-73
2023/01/26 05:39:32;;;;;;;5.90;4.60;;;-0.90;99.90;;;;;;494007;241;27469;-73
2023/01/26 05:41:33;;;;;;;4.95;4.45;;;-0.90;99.90;;;;;;494029;241;27533;-73
2023/01/26 05:43:34;;;;;;;5.82;4.90;;;-0.90;99.90;;;;;;494020;241;27900;-73
2023/01/26 05:45:35;;;;;;;7.72;4.30;;;-0.90;99.90;;;;;;494006;241;28001;-73
2023/01/26 05:47:37;;;;;;;6.47;4.95;;;-0.90;99.90;;;;;;494026;241;28086;-73
2023/01/26 05:49:41;;;;;;;6.18;4.53;;;-0.90;99.90;;;;;;494022;241;27447;-73
2023/01/26 05:51:39;;;;;;;5.05;4.18;;;-0.90;99.90;;;;;;493724;241;27498;-73
2023/01/26 05:53:40;;;;;;;5.65;4.35;;;-0.90;99.90;;;;;;494033;241;27490;-73
2023/01/26 05:55:42;;;;;;;7.75;4.95;;;-1.00;99.90;;;;;;494031;241;27451;-74
2023/01/26 05:57:43;;;;;;;6.25;4.30;;;-0.90;99.90;;;;;;494021;241;27601;-73
2023/01/26 05:59:44;;;;;;;5.75;4.00;;;-0.90;99.90;;;;;;494029;241;27459;-73
2023/01/26 06:01:45;;;;;;;7.22;4.18;;;-0.90;99.90;;;;;;494000;241;28081;-73
2023/01/26 06:03:47;;;;;;;4.28;3.80;;;-0.90;99.90;;;;;;494007;241;28087;-74
2023/01/26 06:05:48;;;;;;;5.85;4.00;;;-0.90;99.90;;;;;;494041;241;27932;-74
2023/01/26 06:07:49;;;;;;;4.87;4.05;;;-0.90;99.90;;;;;;494035;241;27505;-73
2023/01/26 06:09:50;;;;;;;4.93;4.43;;;-0.90;99.90;;;;;;494028;241;27477;-73
2023/01/26 06:11:52;;;;;;;6.03;4.30;;;-1.00;99.90;;;;;;494018;241;27575;-73
2023/01/26 06:13:53;;;;;;;5.72;4.12;;;-1.00;99.90;;;;;;494007;241;27847;-73
2023/01/26 06:15:54;;;;;;;6.97;4.93;;;-1.00;99.90;;;;;;494047;241;27472;-73
2023/01/26 06:17:55;;;;;;;4.72;3.85;;;-1.00;99.90;;;;;;494036;241;27502;-74
2023/01/26 06:19:57;;;;;;;7.15;4.87;;;-1.00;99.90;;;;;;494000;241;27536;-74
2023/01/26 06:21:58;;;;;;;5.80;4.43;;;-0.90;99.90;;;;;;493993;241;28001;-74
2023/01/26 06:23:59;;;;;;;5.90;4.65;;;-0.90;99.90;;;;;;494039;241;28049;-73
2023/01/26 06:26:00;;;;;;;6.25;4.25;;;-0.90;99.90;;;;;;494037;241;28024;-73
2023/01/26 06:28:02;;;;;;;5.12;4.32;;;-0.90;99.90;;;;;;494016;241;27581;-73
2023/01/26 06:30:04;;;;;;;6.85;4.45;;;-0.90;99.90;;;;;;493986;241;27492;-73
2023/01/26 06:32:04;;;;;;;4.60;4.20;;;-0.90;99.90;;;;;;493973;241;27501;-73
2023/01/26 06:34:05;;;;;;;6.95;5.12;;;-0.90;99.90;;;;;;494020;241;27571;-73
2023/01/26 06:36:07;;;;;;;6.55;5.07;;;-0.90;99.90;;;;;;494022;241;27537;-74
2023/01/26 06:38:08;;;;;;;5.05;4.30;;;-0.90;99.90;;;;;;494013;241;27515;-73
2023/01/26 06:40:09;;;;;;;6.00;4.47;;;-0.90;99.90;;;;;;494008;241;27532;-73
2023/01/26 06:42:11;;;;;;;6.12;4.40;;;-0.90;99.90;;;;;;494002;241;27976;-73
2023/01/26 06:44:12;;;;;;;4.43;3.75;;;-0.90;99.90;;;;;;493961;241;27996;-73
2023/01/26 06:46:13;;;;;;;4.65;4.12;;;-0.90;99.90;;;;;;494030;241;28002;-73
2023/01/26 06:48:14;;;;;;;5.90;5.00;;;-1.00;99.90;;;;;;494032;241;27519;-73
2023/01/26 06:50:15;;;;;;;5.57;5.05;;;-1.00;99.90;;;;;;493995;241;27466;-73
2023/01/26 06:52:17;;;;;;;6.12;4.50;;;-0.90;99.90;;;;;;494015;241;27589;-73
2023/01/26 06:54:18;;;;;;;4.68;3.72;;;-0.90;99.90;;;;;;494041;241;27540;-73
2023/01/26 06:56:19;;;;;;;4.90;4.40;;;-0.90;99.90;;;;;;494034;241;27547;-73
2023/01/26 06:58:20;;;;;;;7.80;4.57;;;-0.80;99.90;;;;;;494026;241;27596;-73
2023/01/26 07:00:22;;;;;;;5.43;4.40;;;-0.90;99.90;;;;;;494034;239;27923;-74
2023/01/26 07:02:23;;;;;;;7.65;4.62;;;-0.90;99.90;;;;;;493949;241;28092;-73
2023/01/26 07:04:24;;;;;;;5.65;4.78;;;-0.90;99.90;;;;;;494076;241;27981;-73
2023/01/26 07:06:26;;;;;;;6.18;4.50;;;-0.90;99.90;;;;;;493842;241;27485;-73
2023/01/26 07:08:27;;;;;;;5.62;4.12;;;-0.90;99.90;;;;;;493560;241;27586;-74
2023/01/26 07:10:28;;;;;;;5.25;4.50;;;-0.90;99.90;;;;;;493933;241;27496;-73
2023/01/26 07:12:29;;;;;;;5.10;4.20;;;-0.90;99.90;;;;;;494007;241;27566;-73
2023/01/26 07:14:31;;;;;;;5.00;3.92;;;-0.90;99.90;;;;;;494019;241;27564;-73
2023/01/26 07:16:32;;;;;;;5.78;4.22;;;-0.90;99.90;;;;;;493988;241;27521;-73
2023/01/26 07:18:33;;;;;;;4.65;3.80;;;-0.90;99.90;;;;;;494022;241;27499;-73
2023/01/26 07:20:34;;;;;;;4.20;3.80;;;-0.90;99.90;;;;;;494025;241;28014;-73
2023/01/26 07:22:36;;;;;;;6.90;5.15;;;-0.90;99.90;;;;;;494019;241;27995;-73
2023/01/26 07:24:37;;;;;;;6.35;4.10;;;-0.90;99.90;;;;;;494013;241;27995;-73
2023/01/26 07:26:38;;;;;;;5.70;4.53;;;-0.90;99.90;;;;;;494006;241;27455;-73
2023/01/26 07:28:39;;;;;;;5.07;4.53;;;-0.80;99.90;;;;;;494007;237;27909;-73
2023/01/26 07:30:41;;;;;;;5.95;5.03;;;-0.80;99.90;;;;;;493989;241;27530;-73
2023/01/26 07:32:42;;;;;;;9.02;5.80;;;-0.80;99.90;;;;;;494002;241;27469;-73
2023/01/26 07:34:43;;;;;;;8.20;6.18;;;-1.10;99.90;;;;;;494004;241;27506;-73
2023/01/26 07:36:44;;;;;;;8.07;6.53;;;-1.20;99.90;;;;;;494023;241;27977;-73
2023/01/26 07:38:46;;;;;;;6.25;5.30;;;-1.10;99.90;;;;;;494004;241;29078;-73
2023/01/26 07:40:47;;;;;;;7.53;4.80;;;-1.10;99.90;;;;;;493995;237;28155;-73
2023/01/26 07:42:48;;;;;;;7.00;3.92;;;-1.30;99.90;;;;;;494023;241;27471;-73
2023/01/26 07:44:49;;;;;;;6.25;4.97;;;-1.20;99.90;;;;;;494001;241;27627;-73
2023/01/26 07:46:52;;;;;;;5.37;4.15;;;-1.10;99.90;;;;;;494012;241;27540;-73
2023/01/26 07:48:52;;;;;;;7.25;5.57;;;-1.00;99.90;;;;;;493932;241;27532;-74
2023/01/26 07:50:53;;;;;;;5.93;5.32;;;-0.90;99.90;;;;;;493988;241;27556;-73
2023/01/26 07:52:54;;;;;;;6.15;4.75;;;-0.80;99.90;;;;;;494008;241;27486;-73
2023/01/26 07:54:56;;;;;;;5.30;4.80;;;-0.80;99.90;;;;;;494003;241;27601;-73
2023/01/26 07:56:57;;;;;;;7.40;5.00;;;-0.70;99.90;;;;;;493976;241;27988;-73
2023/01/26 07:58:59;;;;;;;6.05;5.32;;;-0.70;99.90;;;;;;493964;241;29080;-74
2023/01/26 08:00:59;;;;;;;8.25;5.97;;;-0.70;99.90;;;;;;493999;241;29070;-73
2023/01/26 08:03:01;;;;;;;6.40;4.85;;;-0.70;99.90;;;;;;494014;241;27575;-73
2023/01/26 08:05:02;;;;;;;5.05;4.45;;;-0.70;99.90;;;;;;494012;241;27526;-74
2023/01/26 08:07:03;;;;;;;5.30;4.80;;;-0.80;99.90;;;;;;494008;241;27470;-73
2023/01/26 08:09:04;;;;;;;5.35;4.28;;;-0.80;99.90;;;;;;493993;241;27629;-74
2023/01/26 08:11:06;;;;;;;6.43;5.20;;;-1.00;99.90;;;;;;494036;241;27975;-74
2023/01/26 08:13:07;;;;;;;5.85;3.87;;;-1.00;99.90;;;;;;494018;241;27589;-73
2023/01/26 08:15:09;;;;;;;10.05;6.78;;;-1.00;99.90;;;;;;494012;241;27503;-74
2023/01/26 08:17:09;;;;;;;6.68;5.80;;;-1.00;99.90;;;;;;493949;241;27918;-73
2023/01/26 08:19:11;;;;;;;8.07;6.20;;;-1.10;99.90;;;;;;494007;241;27995;-74
2023/01/26 08:21:12;;;;;;;7.05;5.87;;;-1.30;99.90;;;;;;493998;241;27522;-73
2023/01/26 08:23:13;;;;;;;6.30;5.65;;;-1.20;99.90;;;;;;493988;241;27556;-73
2023/01/26 08:25:14;;;;;;;6.97;5.68;;;-1.10;99.90;;;;;;494003;241;27493;-73
2023/01/26 08:27:16;;;;;;;6.32;5.72;;;-1.00;99.90;;;;;;494007;239;27558;-73
2023/01/26 08:29:19;;;;;;;8.38;5.78;;;-1.00;99.90;;;;;;493993;241;27529;-74
2023/01/26 08:31:19;;;;;;;5.78;5.18;;;-1.10;99.90;;;;;;493827;238;27505;-73
2023/01/26 08:33:19;;;;;;;5.80;5.20;;;-1.10;99.90;;;;;;493999;241;27465;-74
2023/01/26 08:35:21;;;;;;;9.23;6.05;;;-1.30;99.90;;;;;;493994;241;27970;-73
2023/01/26 08:37:22;;;;;;;9.30;5.35;;;-1.20;99.90;;;;;;494000;241;28798;-73
2023/01/26 08:39:23;;;;;;;7.90;5.85;;;-1.20;99.90;;;;;;494026;241;29038;-73
2023/01/26 08:41:24;;;;;;;8.30;5.70;;;-1.30;99.90;;;;;;494041;241;27638;-73
2023/01/26 08:43:26;;;;;;;8.32;5.57;;;-1.20;99.90;;;;;;494027;241;27479;-74
2023/01/26 08:45:27;;;;;;;8.60;6.45;;;-1.20;99.90;;;;;;493973;241;27584;-73
2023/01/26 08:47:28;;;;;;;8.13;5.87;;;-1.20;99.90;;;;;;494034;241;27471;-74
2023/01/26 08:49:29;;;;;;;7.25;5.68;;;-1.20;99.90;;;;;;494010;241;27477;-73
2023/01/26 08:51:31;;;;;;;8.48;5.62;;;-1.20;99.90;;;;;;494027;241;27510;-74
2023/01/26 08:53:32;;;;;;;6.00;5.40;;;-1.20;99.90;;;;;;494004;241;27552;-73
2023/01/26 08:55:33;;;;;;;5.87;5.00;;;-1.20;99.90;;;;;;493987;241;28056;-73
2023/01/26 08:57:34;;;;;;;7.47;5.80;;;-1.30;99.90;;;;;;493929;241;28675;-74
2023/01/26 08:59:36;;;;;;;6.65;6.00;;;-1.50;99.90;;;;;;493959;241;28020;-73
2023/01/26 09:01:37;;;;;;;7.87;6.05;;;-1.40;99.90;;;;;;493979;241;27592;-73
2023/01/26 09:03:38;;;;;;;7.10;5.50;;;-1.40;99.90;;;;;;493989;241;27490;-73
2023/01/26 09:05:39;;;;;;;7.05;5.47;;;-1.20;99.90;;;;;;493971;241;27512;-73
2023/01/26 09:07:41;;;;;;;6.70;5.50;;;-1.20;99.90;;;;;;493990;241;27590;-73
2023/01/26 09:09:42;;;;;;;5.50;4.87;;;-1.20;99.90;;;;;;494007;241;27536;-73
2023/01/26 09:11:43;;;;;;;8.90;5.90;;;-1.20;99.90;;;;;;493915;241;27584;-74
2023/01/26 09:13:45;;;;;;;7.72;6.28;;;-1.40;99.90;;;;;;494004;241;27474;-73
2023/01/26 09:15:46;;;;;;;7.90;6.40;;;-1.80;99.90;;;;;;494007;241;27985;-73
2023/01/26 09:17:47;;;;;;;8.77;6.43;;;-1.70;99.90;;;;;;493988;241;28695;-74
2023/01/26 09:19:48;;;;;;;7.47;6.65;;;-1.70;99.90;;;;;;493996;241;29139;-74
2023/01/26 09:21:50;;;;;;;6.25;4.82;;;-1.60;99.90;;;;;;494027;241;27506;-73
2023/01/26 09:23:51;;;;;;;9.02;6.35;;;-1.50;99.90;;;;;;493986;241;27477;-73
2023/01/26 09:25:52;;;;;;;6.93;5.78;;;-1.40;99.90;;;;;;494016;241;27585;-74
2023/01/26 09:27:53;;;;;;;8.60;6.20;;;-1.40;99.90;;;;;;494024;241;27461;-73
2023/01/26 09:29:55;;;;;;;7.57;6.00;;;-1.50;99.90;;;;;;494033;241;27477;-73
2023/01/26 09:31:56;;;;;;;7.00;6.25;;;-1.40;99.90;;;;;;494045;241;27537;-73
2023/01/26 09:33:57;;;;;;;6.55;5.80;;;-1.40;99.90;;;;;;494027;241;27513;-73
2023/01/26 09:35:58;;;;;;;6.78;5.62;;;-1.50;99.90;;;;;;494028;241;27959;-73
2023/01/26 09:38:00;;;;;;;8.20;6.30;;;-1.50;99.90;;;;;;494039;241;28696;-73
2023/01/26 09:40:01;;;;;;;27.17;15.40;;;-1.60;99.90;;;;;;494021;241;29181;-73
2023/01/26 09:42:02;;;;;;;10.38;8.25;;;-1.60;99.90;;;;;;494014;241;27580;-73
2023/01/26 09:44:03;;;;;;;6.37;5.57;;;-1.70;99.90;;;;;;494011;241;27485;-73
2023/01/26 09:46:05;;;;;;;8.27;5.90;;;-1.70;99.90;;;;;;494029;241;27621;-74
2023/01/26 09:48:06;;;;;;;6.70;5.80;;;-1.70;99.90;;;;;;494004;241;27466;-73
2023/01/26 09:50:07;;;;;;;8.93;7.18;;;-1.60;99.90;;;;;;494020;241;27525;-73
2023/01/26 09:52:08;;;;;;;6.50;5.82;;;-1.60;99.90;;;;;;494033;241;27497;-73
2023/01/26 09:54:10;;;;;;;6.00;5.07;;;-1.60;99.90;;;;;;494007;241;27470;-73
2023/01/26 09:56:11;;;;;;;7.32;6.10;;;-1.70;99.90;;;;;;494015;241;27984;-73
2023/01/26 09:58:12;;;;;;;9.85;6.72;;;-1.70;99.90;;;;;;494040;241;28997;-74
2023/01/26 10:00:13;;;;;;;8.80;6.37;;;-1.70;99.90;;;;;;494043;241;27480;-73
2023/01/26 10:02:15;;;;;;;8.43;6.93;;;-2.00;99.90;;;;;;494061;241;27506;-73
2023/01/26 10:04:16;;;;;;;7.40;5.68;;;-2.30;99.90;;;;;;494033;241;27476;-73
2023/01/26 10:06:17;;;;;;;6.62;5.95;;;-2.00;99.90;;;;;;494058;241;27529;-73
2023/01/26 10:08:18;;;;;;;5.95;5.28;;;-1.80;99.90;;;;;;494049;241;27477;-73
2023/01/26 10:10:20;;;;;;;6.32;5.20;;;-1.70;99.90;;;;;;494003;241;27521;-73
2023/01/26 10:12:21;;;;;;;6.95;5.90;;;-1.70;99.90;;;;;;494029;241;27535;-73
2023/01/26 10:14:22;;;;;;;10.23;6.45;;;-1.60;99.90;;;;;;494027;241;27471;-73
2023/01/26 10:16:24;;;;;;;9.98;7.28;;;-1.70;99.90;;;;;;494030;241;27997;-73
2023/01/26 10:18:25;;;;;;;8.18;6.78;;;-1.70;99.90;;;;;;494007;241;29102;-74
2023/01/26 10:20:26;;;;;;;6.85;5.18;;;-1.70;99.90;;;;;;494013;241;27501;-73
2023/01/26 10:22:27;;;;;;;6.43;5.37;;;-1.60;99.90;;;;;;493997;241;27639;-73
2023/01/26 10:24:28;;;;;;;5.80;5.00;;;-1.50;99.90;;;;;;493995;241;27486;-73
2023/01/26 10:26:30;;;;;;;7.03;5.62;;;-1.40;99.90;;;;;;494016;241;27504;-73
2023/01/26 10:28:31;;;;;;;7.32;5.65;;;-1.80;99.90;;;;;;493997;241;27561;-73
2023/01/26 10:30:32;;;;;;;6.78;5.45;;;-1.90;99.90;;;;;;494005;241;27528;-73
2023/01/26 10:32:36;;;;;;;6.75;5.00;;;-1.70;99.90;;;;;;494011;241;27501;-73
2023/01/26 10:34:35;;;;;;;5.28;4.78;;;-1.60;99.90;;;;;;493777;241;28000;-73
2023/01/26 10:36:36;;;;;;;5.40;4.90;;;-1.40;99.90;;;;;;494022;241;28099;-73
2023/01/26 10:38:37;;;;;;;7.28;4.87;;;-1.60;99.90;;;;;;493993;241;27985;-73
2023/01/26 10:40:38;;;;;;;7.12;5.50;;;-1.50;99.90;;;;;;494008;241;27502;-73
2023/01/26 10:42:40;;;;;;;6.90;6.20;;;-1.80;99.90;;;;;;494007;241;27560;-73
2023/01/26 10:44:42;;;;;;;7.68;6.00;;;-1.70;99.90;;;;;;494011;241;27493;-74
2023/01/26 10:46:42;;;;;;;8.90;6.10;;;-1.70;99.90;;;;;;493963;241;27550;-73
2023/01/26 10:48:43;;;;;;;6.05;5.12;;;-1.60;99.90;;;;;;494010;241;27485;-73
2023/01/26 10:50:45;;;;;;;6.12;4.75;;;-1.60;99.90;;;;;;494040;241;27563;-73
2023/01/26 10:52:46;;;;;;;7.00;4.97;;;-1.50;99.90;;;;;;494017;241;27581;-73
2023/01/26 10:54:47;;;;;;;6.65;5.25;;;-1.60;99.90;;;;;;494018;241;28012;-73
2023/01/26 10:56:48;;;;;;;6.97;5.07;;;-1.60;99.90;;;;;;494029;241;28068;-73
2023/01/26 10:58:50;;;;;;;7.05;5.75;;;-1.60;99.90;;;;;;494030;241;27924;-73
2023/01/26 11:00:51;;;;;;;5.00;4.50;;;-1.60;99.90;;;;;;493831;241;27552;-73
2023/01/26 11:02:52;;;;;;;5.95;4.90;;;-1.50;99.90;;;;;;494005;241;27488;-74
2023/01/26 11:04:53;;;;;;;6.12;5.53;;;-1.50;99.90;;;;;;494022;241;27609;-73
2023/01/26 11:06:55;;;;;;;7.10;6.20;;;-1.60;99.90;;;;;;494056;241;27512;-73
2023/01/26 11:08:56;;;;;;;6.37;5.32;;;-1.70;99.90;;;;;;494048;241;27459;-73
2023/01/26 11:10:57;;;;;;;5.57;5.07;;;-1.60;99.90;;;;;;494029;241;27512;-73
2023/01/26 11:12:59;;;;;;;7.82;5.97;;;-1.50;99.90;;;;;;494041;241;28038;-73